Time;durP1;ratioP1;P1;durP2;ratioP2;P2;SDS_P1;SDS_P2;PMS_P1;PMS_P2;Temp;Humidity;BMP_temperature;BMP_pressure;BME280_temperature;BME280_humidity;BME280_pressure;Samples;Min_cycle;Max_cycle;Signal;HPM_P1;HPM_P2
2021/07/10 00:01:58;;;;;;;;;3.50;3.50;;;;;26.83;41.35;101803.69;5074616;27;45436;-73
2021/07/10 00:04:23;;;;;;;;;5.00;3.75;;;;;26.72;41.42;101785.50;5073855;27;45373;-74
2021/07/10 00:06:49;;;;;;;;;3.75;3.75;;;;;26.66;41.46;101775.56;5066306;27;45399;-74
2021/07/10 00:09:15;;;;;;;;;5.00;3.75;;;;;26.81;41.92;101802.22;5061114;28;46282;-74
2021/07/10 00:11:40;;;;;;;;;3.00;3.00;;;;;26.72;41.65;101789.00;5064643;27;45311;-74
2021/07/10 00:14:07;;;;;;;;;3.00;3.00;;;;;26.76;41.42;101791.28;5070012;27;45394;-74
2021/07/10 00:16:32;;;;;;;;;4.33;4.00;;;;;26.65;41.31;101764.06;5063420;28;45479;-74
2021/07/10 00:18:58;;;;;;;;;3.00;3.00;;;;;26.74;41.71;101776.28;5073778;27;46012;-74
2021/07/10 00:21:23;;;;;;;;;3.50;3.50;;;;;26.79;41.72;101780.22;5077294;28;45375;-74
2021/07/10 00:23:49;;;;;;;;;5.00;4.00;;;;;26.73;41.51;101763.13;5063852;27;45288;-74
2021/07/10 00:26:14;;;;;;;;;2.75;2.75;;;;;26.68;41.52;101754.84;5075238;27;45833;-74
2021/07/10 00:28:40;;;;;;;;;5.00;3.25;;;;;26.76;41.76;101768.09;5066867;27;45325;-74
2021/07/10 00:31:05;;;;;;;;;4.25;4.00;;;;;26.75;41.64;101758.44;5067805;28;45411;-74
2021/07/10 00:33:31;;;;;;;;;3.75;3.75;;;;;26.61;41.51;101725.44;5073912;27;45535;-74
2021/07/10 00:35:56;;;;;;;;;4.00;4.00;;;;;26.82;41.37;101754.00;5065348;28;45340;-74
2021/07/10 00:38:22;;;;;;;;;3.00;3.00;;;;;26.84;41.64;101756.44;5068498;27;48148;-74
2021/07/10 00:40:47;;;;;;;;;3.00;3.00;;;;;26.82;41.38;101743.31;5064874;28;45400;-74
2021/07/10 00:43:12;;;;;;;;;3.00;3.00;;;;;26.79;41.73;101737.50;5078474;27;45244;-74
2021/07/10 00:45:38;;;;;;;;;4.00;2.00;;;;;26.81;41.47;101744.31;5066503;27;45576;-74
2021/07/10 00:48:04;;;;;;;;;3.75;3.75;;;;;26.75;41.14;101731.75;5074769;27;45352;-74
2021/07/10 00:50:29;;;;;;;;;3.75;3.75;;;;;26.75;41.52;101726.41;5078224;28;45402;-74
2021/07/10 00:52:55;;;;;;;;;3.00;3.00;;;;;26.77;41.33;101728.88;5068491;28;45357;-74
2021/07/10 00:55:22;;;;;;;;;3.25;3.00;;;;;26.87;41.34;101742.72;5066380;28;45571;-74
2021/07/10 00:57:50;;;;;;;;;5.00;3.00;;;;;26.76;41.53;101725.38;5074644;27;45580;-74
2021/07/10 01:00:18;;;;;;;;;4.00;4.00;;;;;26.67;42.04;101707.84;5070848;28;45323;-74
2021/07/10 01:02:46;;;;;;;;;2.25;2.25;;;;;26.80;41.66;101731.16;5075396;27;45442;-74
2021/07/10 01:05:15;;;;;;;;;3.75;3.75;;;;;26.67;41.65;101702.50;5073012;27;45317;-74
2021/07/10 01:07:41;;;;;;;;;3.50;3.50;;;;;26.67;41.26;101707.84;5065706;28;46735;-74
2021/07/10 01:10:08;;;;;;;;;4.75;4.75;;;;;26.77;41.92;101724.38;5061363;27;45248;-74
2021/07/10 01:12:36;;;;;;;;;3.00;3.00;;;;;26.80;41.31;101724.00;5067533;27;45310;-74
2021/07/10 01:15:03;;;;;;;;;3.75;3.00;;;;;26.81;41.92;101722.13;5065770;28;45671;-74
2021/07/10 01:17:28;;;;;;;;;3.75;3.75;;;;;26.69;41.67;101695.13;5067255;27;47302;-74
2021/07/10 01:20:05;;;;;;;;;4.75;4.00;;;;;26.82;41.62;101713.13;5070272;27;45343;-74
2021/07/10 01:22:32;;;;;;;;;5.00;5.00;;;;;26.58;41.57;101675.94;5065970;28;45465;-74
2021/07/10 01:24:57;;;;;;;;;2.50;2.50;;;;;26.81;41.42;101712.28;5069204;28;45459;-74
2021/07/10 01:27:23;;;;;;;;;4.75;3.75;;;;;26.73;41.68;101693.72;5070686;27;46144;-74
2021/07/10 01:29:48;;;;;;;;;2.00;2.00;;;;;26.66;41.36;101688.34;5061785;28;45456;-74
2021/07/10 01:32:17;;;;;;;;;4.25;4.25;;;;;26.69;41.41;101681.78;5066971;27;45303;-73
2021/07/10 01:34:45;;;;;;;;;2.75;2.75;;;;;26.73;41.85;101686.53;5063535;27;45537;-73
2021/07/10 01:37:11;;;;;;;;;4.00;2.75;;;;;26.67;41.36;101667.81;5071992;28;46665;-74
2021/07/10 01:39:37;;;;;;;;;3.00;3.00;;;;;26.62;41.29;101655.06;5065963;27;45496;-74
2021/07/10 01:42:02;;;;;;;;;4.00;4.00;;;;;26.75;41.69;101681.03;5065317;28;45506;-74
2021/07/10 01:44:28;;;;;;;;;1.00;1.00;;;;;26.72;41.61;101673.41;5071249;27;45434;-74
2021/07/10 01:46:53;;;;;;;;;4.75;4.00;;;;;26.81;41.34;101684.75;5065168;28;45369;-74
2021/07/10 01:49:19;;;;;;;;;4.75;4.25;;;;;26.79;41.84;101682.28;5069878;28;45410;-74
2021/07/10 01:51:44;;;;;;;;;3.50;3.00;;;;;26.72;41.48;101666.22;5067453;28;45449;-74
2021/07/10 01:54:10;;;;;;;;;3.00;3.00;;;;;26.77;41.41;101664.81;5070044;27;45240;-74
2021/07/10 01:56:35;;;;;;;;;4.75;3.25;;;;;26.77;41.46;101656.81;5074200;27;46530;-74
2021/07/10 01:59:01;;;;;;;;;4.75;4.75;;;;;26.65;41.63;101641.28;5067261;27;45298;-74
2021/07/10 02:01:27;;;;;;;;;4.00;3.00;;;;;26.67;41.65;101636.63;5076662;27;45432;-74
2021/07/10 02:03:52;;;;;;;;;4.25;4.25;;;;;26.76;41.89;101647.13;5075668;27;45483;-74
2021/07/10 02:06:18;;;;;;;;;3.25;3.00;;;;;26.66;41.42;101632.28;5067801;27;45407;-74
2021/07/10 02:08:44;;;;;;;;;4.25;3.00;;;;;26.72;41.29;101636.88;5062683;27;45359;-74
2021/07/10 02:11:09;;;;;;;;;3.00;3.00;;;;;26.75;41.60;101641.00;5072597;27;45322;-74
2021/07/10 02:13:36;;;;;;;;;3.00;3.00;;;;;26.66;41.66;101620.78;5076720;27;45401;-74
2021/07/10 02:16:03;;;;;;;;;4.00;4.00;;;;;26.61;41.51;101616.03;5065037;27;46258;-74
2021/07/10 02:18:28;;;;;;;;;3.00;3.00;;;;;26.69;41.49;101617.72;5071525;27;45179;-74
2021/07/10 02:20:53;;;;;;;;;3.00;3.00;;;;;26.80;41.69;101645.75;5067308;28;45407;-74
2021/07/10 02:23:19;;;;;;;;;4.50;3.25;;;;;26.70;41.93;101619.38;5091276;27;45486;-74
2021/07/10 02:25:44;;;;;;;;;1.75;1.75;;;;;26.81;41.28;101634.84;5064870;28;47156;-74
2021/07/10 02:28:09;;;;;;;;;3.50;3.50;;;;;26.71;41.44;101607.69;5073959;28;45387;-74
2021/07/10 02:30:35;;;;;;;;;3.50;2.50;;;;;26.82;41.46;101627.69;5071109;27;45224;-74
2021/07/10 02:33:03;;;;;;;;;4.00;4.00;;;;;26.81;41.52;101626.03;5065476;27;45563;-74
2021/07/10 02:35:29;;;;;;;;;3.75;3.25;;;;;26.83;41.58;101630.16;5066185;28;46260;-74
2021/07/10 02:37:56;;;;;;;;;3.00;3.00;;;;;26.79;41.90;101623.56;5075307;27;45406;-74
2021/07/10 02:40:21;;;;;;;;;2.75;2.75;;;;;26.71;41.65;101619.19;5076788;27;45491;-74
2021/07/10 02:42:48;;;;;;;;;4.75;3.00;;;;;26.81;41.64;101624.19;5068321;27;46054;-74
2021/07/10 02:45:14;;;;;;;;;2.25;2.25;;;;;26.78;41.33;101623.75;5069125;27;45378;-74
2021/07/10 02:47:40;;;;;;;;;3.25;3.25;;;;;26.82;41.51;101623.16;5067519;27;45287;-74
2021/07/10 02:50:09;;;;;;;;;3.25;3.25;;;;;26.82;41.52;101631.19;5079907;27;45307;-74
2021/07/10 02:52:34;;;;;;;;;3.25;3.25;;;;;26.81;41.54;101629.53;5068397;27;45378;-74
2021/07/10 02:55:00;;;;;;;;;3.00;2.25;;;;;26.80;41.80;101625.22;5070407;27;46118;-74
2021/07/10 02:57:25;;;;;;;;;4.00;3.00;;;;;26.65;41.75;101597.78;5069800;27;45369;-74
2021/07/10 02:59:51;;;;;;;;;4.00;4.00;;;;;26.83;41.83;101629.31;5064398;27;45384;-74
2021/07/10 03:02:16;;;;;;;;;5.00;3.75;;;;;26.69;41.44;101609.72;5068996;27;45348;-74
2021/07/10 03:04:43;;;;;;;;;3.00;2.50;;;;;26.68;41.28;101605.38;5067826;27;46733;-74
2021/07/10 03:07:09;;;;;;;;;3.25;3.25;;;;;26.74;41.50;101605.47;5068111;27;45399;-74
2021/07/10 03:09:34;;;;;;;;;2.50;2.25;;;;;26.76;41.91;101609.75;5064726;27;45243;-74
2021/07/10 03:12:00;;;;;;;;;3.25;3.25;;;;;26.75;41.56;101608.97;5074565;27;46275;-74
2021/07/10 03:14:25;;;;;;;;;4.00;4.00;;;;;26.70;41.75;101595.38;5070265;28;45635;-74
2021/07/10 03:16:51;;;;;;;;;4.50;4.50;;;;;26.64;41.23;101583.63;5065871;27;45307;-74
2021/07/10 03:19:16;;;;;;;;;4.00;3.25;;;;;26.60;41.36;101583.16;5078607;27;45300;-74
2021/07/10 03:21:42;;;;;;;;;4.00;4.00;;;;;26.76;41.70;101604.41;5075784;28;45329;-74
2021/07/10 03:24:08;;;;;;;;;4.00;4.00;;;;;26.66;41.75;101589.59;5071771;27;46237;-74
2021/07/10 03:26:34;;;;;;;;;3.00;3.00;;;;;26.64;41.53;101580.94;5065831;27;45382;-73
2021/07/10 03:28:59;;;;;;;;;4.00;3.00;;;;;26.59;41.26;101570.03;5068547;27;45466;-73
2021/07/10 03:31:24;;;;;;;;;4.50;4.00;;;;;26.74;41.58;101596.63;5077954;27;45331;-74
2021/07/10 03:33:50;;;;;;;;;3.00;3.00;;;;;26.62;41.66;101573.13;5070286;27;46567;-74
2021/07/10 03:36:15;;;;;;;;;3.25;3.25;;;;;26.82;41.31;101596.47;5069563;27;45440;-74
2021/07/10 03:38:44;;;;;;;;;2.25;2.25;;;;;26.62;41.85;101559.78;5071729;27;45355;-74
2021/07/10 03:41:10;;;;;;;;;3.00;3.00;;;;;26.76;41.68;101575.06;5066460;27;45460;-74
2021/07/10 03:43:35;;;;;;;;;3.00;2.00;;;;;26.80;41.58;101579.84;5069985;27;45252;-74
2021/07/10 03:46:02;;;;;;;;;3.25;3.25;;;;;26.66;41.51;101560.22;5068129;27;45492;-74
2021/07/10 03:48:29;;;;;;;;;4.00;4.00;;;;;26.78;41.59;101565.03;5068511;27;45532;-74
2021/07/10 03:50:54;;;;;;;;;2.75;2.75;;;;;26.76;41.74;101561.72;5071175;28;45450;-74
2021/07/10 03:53:20;;;;;;;;;5.00;4.75;;;;;26.67;41.65;101545.03;5072795;27;48568;-74
2021/07/10 03:55:45;;;;;;;;;3.75;3.00;;;;;26.83;41.81;101563.41;5068750;27;45379;-74
2021/07/10 03:58:11;;;;;;;;;3.75;3.75;;;;;26.80;41.59;101569.16;5069399;28;45386;-74
2021/07/10 04:00:36;;;;;;;;;2.75;2.00;;;;;26.63;41.69;101534.75;5073491;28;45395;-74
2021/07/10 04:03:02;;;;;;;;;4.25;3.25;;;;;26.63;41.54;101540.09;5066105;27;46184;-74
2021/07/10 04:05:27;;;;;;;;;4.00;3.00;;;;;26.81;41.52;101567.28;5067594;27;45350;-74
2021/07/10 04:07:53;;;;;;;;;4.00;4.00;;;;;26.76;41.62;101559.03;5068015;28;45399;-73
2021/07/10 04:10:18;;;;;;;;;3.25;3.25;;;;;26.74;41.67;101554.75;5063166;27;45496;-74
2021/07/10 04:12:45;;;;;;;;;3.00;3.00;;;;;26.67;41.65;101543.19;5067718;28;46462;-74
2021/07/10 04:15:14;;;;;;;;;4.25;4.25;;;;;26.76;41.46;101559.03;5065542;27;45310;-74
2021/07/10 04:17:40;;;;;;;;;2.50;2.50;;;;;26.81;41.81;101568.13;5070322;28;45531;-74
2021/07/10 04:20:07;;;;;;;;;4.25;3.50;;;;;26.81;41.41;101570.78;5064413;27;45442;-74
2021/07/10 04:22:33;;;;;;;;;4.00;1.50;;;;;26.65;41.66;101537.22;5075799;27;46500;-74
2021/07/10 04:25:03;;;;;;;;;2.33;2.00;;;;;26.64;41.99;101540.91;5071872;27;45363;-74
2021/07/10 04:27:29;;;;;;;;;2.50;2.50;;;;;26.55;41.79;101524.22;5076693;27;45370;-74
2021/07/10 04:29:54;;;;;;;;;5.00;3.75;;;;;26.56;41.53;101544.56;5064756;28;45414;-73
2021/07/10 04:32:19;;;;;;;;;3.50;3.50;;;;;26.80;41.58;101574.50;5062019;27;45440;-73
2021/07/10 04:34:45;;;;;;;;;4.00;4.00;;;;;26.75;41.66;101574.25;5075043;27;45540;-74
2021/07/10 04:37:11;;;;;;;;;4.25;3.50;;;;;26.74;41.75;101573.44;5073723;27;45406;-74
2021/07/10 04:39:36;;;;;;;;;3.00;3.00;;;;;26.81;41.49;101583.31;5076819;27;45470;-74
2021/07/10 04:42:02;;;;;;;;;4.00;2.50;;;;;26.66;42.00;101549.56;5062169;27;45259;-74
2021/07/10 04:44:27;;;;;;;;;3.50;3.25;;;;;26.71;41.42;101559.63;5066601;27;45473;-74
2021/07/10 04:46:53;;;;;;;;;3.75;3.75;;;;;26.79;41.66;101572.84;5067263;27;45354;-74
2021/07/10 04:49:19;;;;;;;;;4.00;2.50;;;;;26.67;41.97;101553.88;5067775;27;45362;-73
2021/07/10 04:51:44;;;;;;;;;3.50;3.50;;;;;26.65;41.65;101550.56;5068800;28;47054;-74
2021/07/10 04:54:10;;;;;;;;;3.00;3.00;;;;;26.77;41.89;101563.38;5062945;27;45428;-74
2021/07/10 04:56:35;;;;;;;;;2.75;2.75;;;;;26.65;42.03;101542.53;5069362;27;45300;-74
2021/07/10 04:59:00;;;;;;;;;3.00;3.00;;;;;26.75;41.92;101560.91;5066278;28;45331;-74
2021/07/10 05:01:26;;;;;;;;;4.25;4.00;;;;;26.80;41.97;101563.81;5069387;28;46580;-74
2021/07/10 05:03:51;;;;;;;;;4.25;2.25;;;;;26.74;41.89;101561.91;5064622;27;45245;-74
2021/07/10 05:06:17;;;;;;;;;3.00;3.00;;;;;26.74;41.60;101560.06;5065592;28;45308;-74
2021/07/10 05:08:42;;;;;;;;;4.00;4.00;;;;;26.81;41.79;101570.78;5069729;27;45420;-74
2021/07/10 05:11:08;;;;;;;;;4.75;3.00;;;;;26.73;41.75;101557.59;5064320;28;45358;-74
2021/07/10 05:13:33;;;;;;;;;4.75;3.50;;;;;26.77;41.77;101553.53;5064811;27;45354;-74
2021/07/10 05:15:59;;;;;;;;;4.00;4.00;;;;;26.82;41.64;101567.13;5069827;28;45360;-74
2021/07/10 05:18:25;;;;;;;;;6.00;3.75;;;;;26.81;41.50;101552.09;5072954;27;45386;-74
2021/07/10 05:20:50;;;;;;;;;3.00;2.50;;;;;26.79;41.94;101546.16;5068647;28;45367;-74
2021/07/10 05:23:16;;;;;;;;;4.00;4.00;;;;;26.72;41.70;101542.63;5072990;28;45493;-74
2021/07/10 05:25:41;;;;;;;;;3.75;3.75;;;;;26.73;42.06;101544.25;5059443;28;45292;-74
2021/07/10 05:28:06;;;;;;;;;3.00;3.00;;;;;26.78;41.76;101549.00;5063784;28;45490;-74
2021/07/10 05:30:32;;;;;;;;;4.25;4.25;;;;;26.73;41.80;101533.56;5083351;28;46289;-74
2021/07/10 05:32:58;;;;;;;;;2.25;2.25;;;;;26.75;41.86;101539.56;5069064;27;45257;-74
2021/07/10 05:35:25;;;;;;;;;2.50;2.50;;;;;26.71;41.62;101532.94;5078536;28;45336;-74
2021/07/10 05:37:51;;;;;;;;;3.00;3.00;;;;;26.71;41.56;101531.09;5080831;28;45414;-74
2021/07/10 05:40:17;;;;;;;;;3.00;3.00;;;;;26.77;41.89;101534.84;5071724;28;45230;-74
2021/07/10 05:42:42;;;;;;;;;2.50;2.50;;;;;26.76;41.78;101538.53;5064721;28;45441;-74
2021/07/10 05:45:09;;;;;;;;;4.25;3.25;;;;;26.79;41.74;101543.47;5074541;28;45323;-74
2021/07/10 05:47:34;;;;;;;;;4.00;4.00;;;;;26.68;41.82;101528.81;5061350;28;45543;-74
2021/07/10 05:50:00;;;;;;;;;3.00;3.00;;;;;26.76;41.69;101540.34;5072245;28;45351;-74
2021/07/10 05:52:26;;;;;;;;;4.50;3.50;;;;;26.78;41.87;101530.34;5066936;28;45366;-74
2021/07/10 05:54:51;;;;;;;;;3.25;3.25;;;;;26.77;42.01;101537.50;5061535;28;45699;-74
2021/07/10 05:57:17;;;;;;;;;4.00;3.50;;;;;26.74;41.72;101535.22;5062405;28;45269;-74
2021/07/10 05:59:42;;;;;;;;;4.25;3.50;;;;;26.59;42.05;101504.16;5071816;28;47165;-74
2021/07/10 06:02:08;;;;;;;;;4.00;3.00;;;;;26.78;41.60;101533.81;5066635;28;45249;-74
2021/07/10 06:04:34;;;;;;;;;2.00;2.00;;;;;26.80;41.81;101542.47;5062587;28;45314;-74
2021/07/10 06:07:00;;;;;;;;;3.00;2.67;;;;;26.72;41.57;101523.94;5077753;28;45589;-74
2021/07/10 06:09:25;;;;;;;;;5.50;5.50;;;;;26.68;41.72;101509.31;5062216;28;45344;-74
2021/07/10 06:11:50;;;;;;;;;4.25;3.00;;;;;26.64;41.62;101500.88;5062400;28;45284;-74
2021/07/10 06:14:16;;;;;;;;;3.00;3.00;;;;;26.60;41.56;101502.28;5061364;28;45291;-74
2021/07/10 06:16:41;;;;;;;;;3.00;3.00;;;;;26.71;41.69;101525.75;5075608;28;45422;-74
2021/07/10 06:19:07;;;;;;;;;5.00;4.00;;;;;26.71;42.12;101527.59;5062349;28;45678;-74
2021/07/10 06:21:32;;;;;;;;;4.50;4.50;;;;;26.80;41.71;101541.63;5062205;28;45251;-74
2021/07/10 06:23:58;;;;;;;;;3.50;2.75;;;;;26.68;42.10;101511.97;5062178;28;45450;-74
2021/07/10 06:26:23;;;;;;;;;2.00;2.00;;;;;26.80;41.74;101530.97;5062198;28;45334;-73
2021/07/10 06:28:50;;;;;;;;;4.00;4.00;;;;;26.76;41.85;101521.66;5062171;28;45402;-74
2021/07/10 06:31:20;;;;;;;;;4.00;4.00;;;;;26.80;41.89;101526.44;5077759;28;45451;-75
2021/07/10 06:33:46;;;;;;;;;4.25;4.25;;;;;26.70;41.64;101510.75;5060988;28;45354;-75
2021/07/10 06:36:22;;;;;;;;;4.25;3.00;;;;;26.81;41.73;101529.91;5061693;28;45292;-74
2021/07/10 06:38:47;;;;;;;;;4.00;4.00;;;;;26.61;41.77;101507.44;5082425;27;46355;-73
2021/07/10 06:41:13;;;;;;;;;4.00;3.75;;;;;26.59;41.81;101511.31;5063176;28;45280;-74
2021/07/10 06:43:39;;;;;;;;;4.00;3.00;;;;;26.80;41.81;101531.78;5070523;28;45252;-77
2021/07/10 06:46:43;;;;;;;;;3.75;3.75;;;;;26.81;42.04;101527.25;5084159;27;45277;-72
2021/07/10 06:49:09;;;;;;;;;3.75;3.75;;;;;26.77;41.83;101524.16;5067590;27;46354;-72
2021/07/10 06:51:35;;;;;;;;;3.25;3.25;;;;;26.63;41.69;101496.56;5072666;28;45341;-72
2021/07/10 06:54:01;;;;;;;;;3.25;3.25;;;;;26.80;42.05;101518.44;5061908;28;45291;-71
2021/07/10 06:56:47;;;;;;;;;3.00;3.00;;;;;26.80;41.76;101520.28;5061724;28;45483;-72
2021/07/10 06:59:14;;;;;;;;;2.25;2.25;;;;;26.80;41.71;101518.44;5061082;28;45308;-74
2021/07/10 07:02:10;;;;;;;;;2.25;2.25;;;;;26.81;41.73;101516.56;5060609;28;45496;-75
2021/07/10 07:04:34;;;;;;;;;1.75;1.75;;;;;26.81;42.06;101511.22;5070981;27;45178;-76
2021/07/10 07:07:00;;;;;;;;;3.50;3.50;;;;;26.60;41.87;101471.09;5079636;28;45369;-69
2021/07/10 07:09:52;;;;;;;;;5.00;3.25;;;;;26.75;42.06;101494.19;5071988;28;45240;-68
2021/07/10 07:12:17;;;;;;;;;3.00;2.00;;;;;26.77;41.93;101504.66;5068743;27;45341;-70
2021/07/10 07:14:43;;;;;;;;;4.00;4.00;;;;;26.63;42.31;101477.88;5065767;28;45254;-70
2021/07/10 07:17:08;;;;;;;;;4.00;4.00;;;;;26.69;42.16;101486.94;5080403;28;45223;-69
2021/07/10 07:19:34;;;;;;;;;4.00;4.00;;;;;26.78;42.05;101492.97;5082982;27;45239;-69
2021/07/10 07:21:59;;;;;;;;;5.50;4.75;;;;;26.73;41.99;101480.19;5089390;27;45215;-68
2021/07/10 07:24:25;;;;;;;;;3.00;2.00;;;;;26.68;41.96;101475.44;5091490;27;45248;-71
2021/07/10 07:26:51;;;;;;;;;3.75;3.75;;;;;26.58;42.40;101448.28;5086955;27;45606;-68
2021/07/10 07:29:16;;;;;;;;;4.25;3.00;;;;;26.77;42.17;101484.13;5070402;28;45288;-69
2021/07/10 07:31:43;;;;;;;;;5.00;5.00;;;;;26.69;42.74;101468.25;5074903;28;45179;-68
2021/07/10 07:34:08;;;;;;;;;2.00;2.00;;;;;26.84;42.09;101484.97;5061220;28;45363;-71
2021/07/10 07:36:34;;;;;;;;;4.50;4.50;;;;;26.78;41.95;101469.75;5063428;28;45522;-75
2021/07/10 07:39:13;;;;;;;;;3.00;3.00;;;;;26.74;42.11;101473.84;5072546;28;46721;-72
2021/07/10 07:41:39;;;;;;;;;4.00;3.25;;;;;26.76;42.26;101468.28;5061538;28;45216;-74
2021/07/10 07:44:05;;;;;;;;;3.00;3.00;;;;;26.83;42.38;101483.31;5073320;28;45579;-75
2021/07/10 07:46:32;;;;;;;;;4.00;4.00;;;;;26.77;42.48;101473.44;5067903;28;45568;-74
2021/07/10 07:48:57;;;;;;;;;6.25;5.75;;;;;26.66;41.55;101460.66;5076774;27;46657;-76
2021/07/10 07:51:23;;;;;;;;;4.75;4.25;;;;;26.76;42.36;101471.78;5073079;28;45385;-73
2021/07/10 07:53:48;;;;;;;;;4.00;4.00;;;;;26.82;42.03;101486.19;5061039;28;45489;-73
2021/07/10 07:56:15;;;;;;;;;6.50;5.25;;;;;26.78;41.94;101484.94;5061146;28;45383;-73
2021/07/10 07:58:41;;;;;;;;;5.75;4.75;;;;;26.67;42.23;101462.31;5060701;28;45590;-72
2021/07/10 08:01:07;;;;;;;;;4.75;3.50;;;;;26.74;42.30;101473.84;5061243;28;45317;-72
2021/07/10 08:03:33;;;;;;;;;5.00;5.00;;;;;26.73;42.43;101474.84;5061179;28;45307;-72
2021/07/10 08:05:58;;;;;;;;;4.75;4.50;;;;;26.66;42.46;101466.81;5060525;28;45153;-72
2021/07/10 08:08:24;;;;;;;;;4.50;4.50;;;;;26.68;42.15;101470.09;5059218;28;47370;-72
2021/07/10 08:10:49;;;;;;;;;4.00;4.00;;;;;26.72;42.22;101475.88;5060583;28;45240;-71
2021/07/10 08:13:15;;;;;;;;;2.75;2.75;;;;;26.82;42.32;101489.69;5060706;28;45830;-72
2021/07/10 08:15:40;;;;;;;;;6.25;5.00;;;;;26.82;42.79;101494.22;5068090;28;45556;-72
2021/07/10 08:18:06;;;;;;;;;4.25;4.00;;;;;26.82;42.64;101486.19;5065723;28;45437;-72
2021/07/10 08:20:32;;;;;;;;;7.50;6.00;;;;;26.76;42.55;101468.28;5058862;28;45347;-73
2021/07/10 08:22:57;;;;;;;;;6.00;4.50;;;;;26.80;42.26;101478.41;5060663;28;45158;-73
2021/07/10 08:25:23;;;;;;;;;5.50;4.50;;;;;26.79;42.52;101471.41;5060792;28;45343;-72
2021/07/10 08:27:49;;;;;;;;;5.25;4.00;;;;;26.83;42.54;101474.47;5058779;28;47469;-72
2021/07/10 08:30:15;;;;;;;;;4.50;4.50;;;;;26.74;42.44;101469.31;5070451;28;45461;-72
2021/07/10 08:32:45;;;;;;;;;8.25;6.50;;;;;26.76;42.43;101465.63;5065624;28;45377;-71
2021/07/10 08:35:11;;;;;;;;;8.00;6.00;;;;;26.69;42.04;101461.09;5060318;28;45224;-72
2021/07/10 08:37:37;;;;;;;;;3.00;3.00;;;;;26.72;42.13;101463.38;5072097;28;46184;-72
2021/07/10 08:40:04;;;;;;;;;4.75;4.75;;;;;26.69;42.49;101463.75;5071327;28;45274;-72
2021/07/10 08:42:30;;;;;;;;;4.00;3.00;;;;;26.73;43.00;101465.00;5060346;28;45342;-72
2021/07/10 08:44:55;;;;;;;;;3.75;3.75;;;;;26.68;42.38;101455.94;5073598;28;45316;-72
2021/07/10 08:47:21;;;;;;;;;6.50;5.00;;;;;26.62;41.65;101449.56;5059933;28;46654;-72
2021/07/10 08:49:47;;;;;;;;;5.00;4.25;;;;;26.69;42.30;101469.09;5067090;28;45302;-72
2021/07/10 08:52:12;;;;;;;;;5.25;4.00;;;;;26.59;42.36;101452.63;5075379;27;45438;-72
2021/07/10 08:54:38;;;;;;;;;6.50;4.00;;;;;26.66;42.59;101466.81;5072036;28;45344;-72
2021/07/10 08:57:05;;;;;;;;;9.00;6.00;;;;;26.75;42.43;101478.16;5059266;28;45415;-72
2021/07/10 08:59:30;;;;;;;;;4.75;3.25;;;;;26.70;42.41;101469.91;5060079;28;45339;-72
2021/07/10 09:01:56;;;;;;;;;3.50;3.50;;;;;26.76;42.61;101479.78;5058651;28;45355;-72
2021/07/10 09:04:24;;;;;;;;;6.00;4.50;;;;;26.69;42.10;101476.28;5062115;28;45272;-72
2021/07/10 09:06:51;;;;;;;;;5.00;3.75;;;;;26.79;42.32;101495.41;5063131;28;46335;-72
2021/07/10 09:09:17;;;;;;;;;5.00;4.50;;;;;26.81;42.46;101488.03;5063419;28;45370;-72
2021/07/10 09:11:58;;;;;;;;;5.00;3.25;;;;;26.65;42.27;101475.03;5063500;28;45348;-72
2021/07/10 09:14:31;;;;;;;;;3.75;3.75;;;;;26.67;42.00;101470.31;5063414;28;45296;-73
2021/07/10 09:17:16;;;;;;;;;5.00;5.00;;;;;26.73;42.23;101480.19;5076616;28;45423;-72
2021/07/10 09:19:42;;;;;;;;;3.75;3.75;;;;;26.76;42.47;101485.13;5066545;28;45239;-72
2021/07/10 09:22:07;;;;;;;;;3.50;3.50;;;;;26.79;42.13;101492.75;5063409;28;45281;-72
2021/07/10 09:24:37;;;;;;;;;4.00;4.00;;;;;26.63;42.36;101468.03;5062255;28;45479;-72
2021/07/10 09:27:05;;;;;;;;;4.00;4.00;;;;;26.80;42.21;101482.91;5063025;28;46347;-72
2021/07/10 09:29:45;;;;;;;;;6.25;4.00;;;;;26.70;42.18;101469.91;5065792;28;45417;-72
2021/07/10 09:32:14;;;;;;;;;5.00;4.25;;;;;26.73;42.41;101481.00;5072444;28;45345;-72
2021/07/10 09:34:45;;;;;;;;;5.00;4.00;;;;;26.73;42.29;101488.19;5061333;28;45469;-72
2021/07/10 09:37:38;;;;;;;;;3.50;3.50;;;;;26.81;42.59;101497.88;5071607;28;45430;-72
2021/07/10 09:40:07;;;;;;;;;5.25;5.25;;;;;26.74;42.28;101487.19;5073038;28;45495;-72
2021/07/10 09:42:34;;;;;;;;;3.00;3.00;;;;;26.60;41.94;101470.25;5066756;28;45340;-72
2021/07/10 09:45:00;;;;;;;;;5.25;5.25;;;;;26.81;42.49;101489.88;5076062;28;45249;-72
2021/07/10 09:47:27;;;;;;;;;5.00;5.00;;;;;26.82;42.44;101491.53;5078215;28;48450;-72
2021/07/10 09:49:53;;;;;;;;;4.75;4.00;;;;;26.78;42.42;101490.28;5070848;28;45274;-72
2021/07/10 09:52:20;;;;;;;;;3.00;3.00;;;;;26.80;42.25;101489.06;5068631;27;45406;-72
2021/07/10 09:54:49;;;;;;;;;3.00;3.00;;;;;26.81;42.49;101492.53;5069582;27;45331;-72
2021/07/10 09:57:15;;;;;;;;;3.00;3.00;;;;;26.77;42.11;101483.28;5067407;28;45431;-72
2021/07/10 09:59:44;;;;;;;;;6.25;3.50;;;;;26.74;42.14;101485.34;5070873;28;45438;-72
2021/07/10 10:02:12;;;;;;;;;3.25;3.25;;;;;26.79;42.07;101495.41;5066821;28;45352;-73
2021/07/10 10:04:38;;;;;;;;;4.50;4.00;;;;;26.66;42.68;101465.97;5062025;28;45296;-72
2021/07/10 10:07:10;;;;;;;;;5.50;4.00;;;;;26.70;42.57;101486.75;5060760;28;47028;-72
2021/07/10 10:09:36;;;;;;;;;3.50;3.00;;;;;26.76;42.16;101495.81;5061009;28;45438;-72
2021/07/10 10:12:17;;;;;;;;;3.75;2.75;;;;;26.79;42.17;101499.94;5062418;28;45280;-72
2021/07/10 10:14:49;;;;;;;;;4.00;4.00;;;;;26.61;42.40;101472.75;5062071;28;45489;-72
2021/07/10 10:17:17;;;;;;;;;2.75;2.75;;;;;26.78;42.23;101498.31;5069706;28;45263;-72
2021/07/10 10:19:43;;;;;;;;;4.00;4.00;;;;;26.75;42.18;101499.53;5068447;28;45426;-72
2021/07/10 10:22:10;;;;;;;;;3.00;3.00;;;;;26.75;42.53;101488.84;5075169;28;45289;-72
2021/07/10 10:24:37;;;;;;;;;3.50;3.50;;;;;26.68;42.01;101479.94;5062383;28;45316;-72
2021/07/10 10:27:04;;;;;;;;;5.00;3.00;;;;;26.80;42.29;101491.75;5062101;28;45361;-72
2021/07/10 10:29:30;;;;;;;;;3.25;3.25;;;;;26.71;42.22;101482.22;5065046;28;45340;-72
2021/07/10 10:31:58;;;;;;;;;5.25;4.00;;;;;26.79;42.18;101487.41;5074417;28;45319;-72
2021/07/10 10:34:24;;;;;;;;;4.00;3.25;;;;;26.72;42.06;101475.88;5061857;28;45735;-73
2021/07/10 10:36:51;;;;;;;;;4.75;4.00;;;;;26.71;42.49;101474.22;5067001;28;46730;-72
2021/07/10 10:39:20;;;;;;;;;3.00;3.00;;;;;26.65;42.08;101461.69;5080332;27;45525;-72
2021/07/10 10:41:49;;;;;;;;;4.00;2.75;;;;;26.70;42.35;101469.91;5060360;28;45268;-72
2021/07/10 10:44:16;;;;;;;;;3.00;3.00;;;;;26.74;42.33;101479.16;5075341;28;45621;-72
2021/07/10 10:46:51;;;;;;;;;2.75;2.75;;;;;26.77;42.01;101489.47;5061295;28;46485;-72
2021/07/10 10:49:36;;;;;;;;;4.25;4.25;;;;;26.80;42.01;101486.41;5065149;28;45327;-72
2021/07/10 10:52:24;;;;;;;;;3.00;2.75;;;;;26.76;42.32;101468.28;5070173;28;45352;-72
2021/07/10 10:55:08;;;;;;;;;2.00;2.00;;;;;26.70;42.21;101465.38;5060196;28;45460;-72
2021/07/10 10:57:44;;;;;;;;;3.25;3.25;;;;;26.57;42.65;101439.44;5061396;28;46363;-72
2021/07/10 11:00:25;;;;;;;;;3.25;2.75;;;;;26.79;42.42;101470.56;5059900;28;45433;-72
2021/07/10 11:02:55;;;;;;;;;3.50;1.50;;;;;26.79;42.10;101467.91;5070074;28;45425;-72
2021/07/10 11:05:29;;;;;;;;;3.25;3.25;;;;;26.78;42.01;101460.94;5079263;28;45454;-72
2021/07/10 11:08:17;;;;;;;;;3.25;3.00;;;;;26.78;42.20;101455.59;5071389;28;45545;-72
2021/07/10 11:10:43;;;;;;;;;3.00;3.00;;;;;26.65;42.45;101432.31;5061458;28;45311;-72
2021/07/10 11:13:29;;;;;;;;;3.00;3.00;;;;;26.69;42.06;101434.41;5061458;28;45345;-73
2021/07/10 11:16:07;;;;;;;;;3.00;3.00;;;;;26.79;42.38;101452.72;5071316;28;45529;-72
2021/07/10 11:18:50;;;;;;;;;3.75;2.50;;;;;26.76;42.35;101444.25;5063226;28;46100;-73
2021/07/10 11:21:48;;;;;;;;;3.25;2.75;;;;;26.77;42.53;101445.91;5059787;28;45517;-73
2021/07/10 11:24:25;;;;;;;;;2.50;2.50;;;;;26.77;42.33;101441.41;5061570;28;45194;-73
2021/07/10 11:26:56;;;;;;;;;4.00;4.00;;;;;26.76;42.54;101442.44;5060243;28;45678;-73